Time;durP1;ratioP1;P1;durP2;ratioP2;P2;SDS_P1;SDS_P2;PMS_P1;PMS_P2;Temp;Humidity;BMP_temperature;BMP_pressure;BME280_temperature;BME280_humidity;BME280_pressure;Samples;Min_cycle;Max_cycle;Signal;HPM_P1;HPM_P2
2023/12/22 00:00:27;;;;;;;19.52;3.85;;;9.00;99.90;;;;;;5036242;28;20032;-71
2023/12/22 00:02:53;;;;;;;16.08;3.30;;;9.00;99.90;;;;;;5032962;28;20079;-72
2023/12/22 00:05:19;;;;;;;16.17;4.05;;;9.10;99.90;;;;;;5037014;28;20028;-71
2023/12/22 00:07:44;;;;;;;21.05;3.83;;;9.10;99.90;;;;;;5030973;28;20850;-70
2023/12/22 00:10:10;;;;;;;20.83;3.50;;;9.10;99.90;;;;;;5036870;28;20095;-71
2023/12/22 00:12:38;;;;;;;20.00;3.08;;;9.10;99.90;;;;;;5033232;28;20377;-72
2023/12/22 00:15:04;;;;;;;18.55;3.08;;;9.20;99.90;;;;;;5033732;28;20154;-71
2023/12/22 00:17:30;;;;;;;18.60;3.97;;;9.20;99.90;;;;;;5034476;28;20100;-72
2023/12/22 00:19:58;;;;;;;25.30;4.18;;;9.20;99.90;;;;;;5032718;28;20109;-71
2023/12/22 00:22:25;;;;;;;21.75;3.92;;;9.20;99.90;;;;;;5033395;28;20036;-72
2023/12/22 00:24:51;;;;;;;20.73;3.88;;;9.20;99.90;;;;;;5033011;28;20130;-72
2023/12/22 00:27:17;;;;;;;17.35;3.10;;;9.20;99.90;;;;;;5037641;28;20107;-71
2023/12/22 00:29:42;;;;;;;25.40;3.95;;;9.20;99.90;;;;;;5031885;28;20048;-70
2023/12/22 00:32:09;;;;;;;14.13;3.17;;;9.10;99.90;;;;;;5030381;28;20466;-72
2023/12/22 00:34:35;;;;;;;15.05;3.33;;;9.10;99.90;;;;;;5034831;28;20088;-71
2023/12/22 00:37:01;;;;;;;18.90;3.63;;;9.20;99.90;;;;;;5036010;28;20120;-70
2023/12/22 00:39:27;;;;;;;23.75;4.60;;;9.10;99.90;;;;;;5033827;28;20667;-71
2023/12/22 00:41:53;;;;;;;18.15;3.80;;;9.20;99.90;;;;;;5033374;28;20385;-72
2023/12/22 00:44:18;;;;;;;13.13;2.97;;;9.30;99.90;;;;;;5033974;28;20025;-72
2023/12/22 00:46:44;;;;;;;21.55;3.45;;;9.30;99.90;;;;;;5033665;28;20028;-72
2023/12/22 00:49:10;;;;;;;22.13;3.25;;;9.30;99.90;;;;;;5032168;28;20432;-72
2023/12/22 00:51:35;;;;;;;16.42;3.55;;;9.30;99.90;;;;;;5034574;28;20028;-73
2023/12/22 00:54:01;;;;;;;15.68;2.85;;;9.40;99.90;;;;;;5034674;28;20033;-72
2023/12/22 00:56:26;;;;;;;22.38;3.90;;;9.40;99.90;;;;;;5031914;28;20039;-70
2023/12/22 00:58:53;;;;;;;13.77;3.25;;;9.30;99.90;;;;;;5035072;28;20440;-72
2023/12/22 01:01:19;;;;;;;13.38;3.13;;;9.40;99.90;;;;;;5032993;28;20020;-72
2023/12/22 01:03:44;;;;;;;17.08;2.72;;;9.40;99.90;;;;;;5031135;28;20088;-72
2023/12/22 01:06:10;;;;;;;15.95;2.72;;;9.40;99.90;;;;;;5033627;28;20029;-72
2023/12/22 01:08:37;;;;;;;12.55;2.83;;;9.30;99.90;;;;;;5031973;28;20075;-72
2023/12/22 01:11:03;;;;;;;13.00;2.97;;;9.30;99.90;;;;;;5032824;28;20013;-72
2023/12/22 01:13:29;;;;;;;12.10;2.10;;;9.30;99.90;;;;;;5034853;28;20040;-72
2023/12/22 01:15:55;;;;;;;18.25;2.92;;;9.20;99.90;;;;;;5034274;28;20034;-71
2023/12/22 01:18:20;;;;;;;12.27;2.33;;;9.20;99.90;;;;;;5033855;28;20041;-72
2023/12/22 01:20:46;;;;;;;18.30;3.60;;;9.30;99.90;;;;;;5033691;28;20033;-71
2023/12/22 01:23:12;;;;;;;11.00;2.53;;;9.30;99.90;;;;;;5036867;28;20052;-72
2023/12/22 01:25:39;;;;;;;13.32;3.20;;;9.40;99.90;;;;;;5031750;28;20026;-72
2023/12/22 01:28:05;;;;;;;17.45;3.10;;;9.30;99.90;;;;;;5029740;28;20490;-72
2023/12/22 01:30:30;;;;;;;17.48;3.13;;;9.40;99.90;;;;;;5037974;28;20051;-72
2023/12/22 01:32:56;;;;;;;16.35;2.75;;;9.30;99.90;;;;;;5034664;28;20032;-72
2023/12/22 01:35:22;;;;;;;17.38;3.92;;;9.30;99.90;;;;;;5034778;28;20060;-72
2023/12/22 01:37:48;;;;;;;17.55;3.42;;;9.30;99.90;;;;;;5033076;28;20411;-72
2023/12/22 01:40:14;;;;;;;12.63;3.25;;;9.30;99.90;;;;;;5029516;28;20108;-72
2023/12/22 01:42:40;;;;;;;20.10;3.10;;;9.20;99.90;;;;;;5033000;28;20116;-71
2023/12/22 01:45:06;;;;;;;18.50;3.30;;;9.20;99.90;;;;;;5033488;28;20040;-72
2023/12/22 01:47:32;;;;;;;18.17;3.17;;;9.20;99.90;;;;;;5032472;28;20080;-72
2023/12/22 01:49:59;;;;;;;21.27;3.63;;;9.20;99.90;;;;;;5031804;28;20078;-71
2023/12/22 01:52:25;;;;;;;16.48;3.83;;;9.20;99.90;;;;;;5033569;28;20025;-72
2023/12/22 01:54:52;;;;;;;22.40;3.88;;;9.20;99.90;;;;;;5031969;28;20105;-72
2023/12/22 01:57:18;;;;;;;17.33;3.50;;;9.20;99.90;;;;;;5035334;28;20032;-72
2023/12/22 01:59:47;;;;;;;19.65;3.70;;;9.20;99.90;;;;;;5033317;28;20026;-72
2023/12/22 02:02:13;;;;;;;23.88;4.03;;;9.20;99.90;;;;;;5029640;28;20036;-72
2023/12/22 02:04:39;;;;;;;22.88;3.67;;;9.20;99.90;;;;;;5028594;28;20029;-73
2023/12/22 02:07:08;;;;;;;16.98;3.40;;;9.30;99.90;;;;;;5033444;28;20474;-72
2023/12/22 02:09:34;;;;;;;16.55;3.55;;;9.20;99.90;;;;;;5036608;28;20052;-72
2023/12/22 02:12:00;;;;;;;21.27;4.35;;;9.20;99.90;;;;;;5033503;28;20056;-72
2023/12/22 02:14:25;;;;;;;17.40;3.92;;;9.20;99.90;;;;;;5033437;28;20494;-71
2023/12/22 02:16:57;;;;;;;22.75;3.97;;;9.20;99.90;;;;;;5027663;28;20545;-72
2023/12/22 02:19:43;;;;;;;27.35;4.25;;;9.20;99.90;;;;;;5033978;28;20601;-71
2023/12/22 02:22:11;;;;;;;26.95;3.83;;;9.30;99.90;;;;;;5030620;28;20013;-72
2023/12/22 02:24:41;;;;;;;19.98;3.60;;;9.20;99.90;;;;;;5026601;28;20034;-72
2023/12/22 02:27:22;;;;;;;17.27;2.85;;;9.20;99.90;;;;;;5043498;28;20478;-72
2023/12/22 02:30:23;;;;;;;15.50;3.00;;;9.10;99.90;;;;;;5052732;28;20496;-71
2023/12/22 02:32:54;;;;;;;19.75;3.33;;;9.20;99.90;;;;;;5048378;28;20026;-72
2023/12/22 02:35:23;;;;;;;16.95;2.50;;;9.30;99.90;;;;;;5042790;28;20591;-72
2023/12/22 02:37:50;;;;;;;20.42;3.28;;;9.30;99.90;;;;;;5045145;28;20131;-72
2023/12/22 02:40:19;;;;;;;17.88;2.92;;;9.20;99.90;;;;;;5047768;28;20032;-73
2023/12/22 02:42:47;;;;;;;14.07;3.05;;;9.10;99.90;;;;;;5042304;28;20029;-72
2023/12/22 02:45:16;;;;;;;14.05;3.25;;;9.00;99.90;;;;;;5042817;28;20029;-73
2023/12/22 02:47:42;;;;;;;16.10;3.28;;;9.10;99.90;;;;;;5048833;28;20045;-73
2023/12/22 02:50:11;;;;;;;19.08;2.92;;;9.10;99.90;;;;;;5048575;28;20053;-72
2023/12/22 02:52:38;;;;;;;14.20;2.83;;;9.00;99.90;;;;;;5030130;28;20072;-72
2023/12/22 02:55:04;;;;;;;15.32;2.67;;;9.00;99.90;;;;;;5049529;28;20049;-72
2023/12/22 02:57:32;;;;;;;16.52;2.78;;;9.10;99.90;;;;;;5046246;28;20056;-72
2023/12/22 02:59:58;;;;;;;23.13;3.45;;;9.00;99.90;;;;;;5047655;28;20041;-73
2023/12/22 03:02:25;;;;;;;18.35;3.20;;;9.20;99.90;;;;;;5051533;28;20023;-72
2023/12/22 03:04:53;;;;;;;19.23;3.72;;;9.20;99.90;;;;;;5050673;28;20078;-72
2023/12/22 03:07:19;;;;;;;19.85;3.40;;;9.30;99.90;;;;;;5048965;28;20024;-72
2023/12/22 03:09:45;;;;;;;15.05;2.88;;;9.30;99.90;;;;;;5048410;28;20148;-73
2023/12/22 03:12:11;;;;;;;15.13;3.30;;;9.30;99.90;;;;;;5043985;28;20029;-72
2023/12/22 03:14:37;;;;;;;19.05;3.45;;;9.30;99.90;;;;;;5050494;28;20029;-72
2023/12/22 03:17:04;;;;;;;12.77;3.45;;;9.40;99.90;;;;;;5046892;28;20060;-72
2023/12/22 03:19:33;;;;;;;20.05;4.25;;;9.30;99.90;;;;;;5047076;28;20037;-72
2023/12/22 03:21:59;;;;;;;19.77;3.88;;;9.40;99.90;;;;;;5045506;28;20025;-72
2023/12/22 03:24:29;;;;;;;14.93;3.33;;;9.30;99.90;;;;;;5049317;28;20629;-72
2023/12/22 03:26:56;;;;;;;22.80;3.35;;;9.20;99.90;;;;;;5047228;28;20043;-74
2023/12/22 03:29:22;;;;;;;18.60;3.80;;;9.20;99.90;;;;;;5047805;28;20567;-72
2023/12/22 03:31:47;;;;;;;20.98;3.65;;;9.30;99.90;;;;;;5046310;28;20033;-72
2023/12/22 03:34:14;;;;;;;18.30;3.40;;;9.20;99.90;;;;;;5045543;28;20013;-73
2023/12/22 03:36:39;;;;;;;16.55;3.22;;;9.20;99.90;;;;;;5046143;28;20496;-72
2023/12/22 03:39:05;;;;;;;19.30;3.28;;;9.20;99.90;;;;;;5053858;28;20061;-73
2023/12/22 03:41:31;;;;;;;16.27;3.05;;;9.20;99.90;;;;;;5041612;28;20522;-72
2023/12/22 03:43:58;;;;;;;17.20;2.78;;;9.30;99.90;;;;;;5043365;28;20032;-72
2023/12/22 03:46:24;;;;;;;17.55;3.05;;;9.20;99.90;;;;;;5051261;28;20029;-72
2023/12/22 03:48:50;;;;;;;19.08;2.92;;;9.20;99.90;;;;;;5046393;28;20096;-73
2023/12/22 03:51:16;;;;;;;19.70;3.33;;;9.20;99.90;;;;;;5050571;28;20039;-76
2023/12/22 03:53:42;;;;;;;16.35;3.50;;;9.30;99.90;;;;;;5044650;28;20025;-73
2023/12/22 03:56:08;;;;;;;18.05;3.35;;;9.20;99.90;;;;;;5052436;28;20351;-73
2023/12/22 03:58:35;;;;;;;22.67;3.47;;;9.30;99.90;;;;;;5047244;28;20033;-73
2023/12/22 04:01:01;;;;;;;16.90;3.40;;;9.30;99.90;;;;;;5048568;28;20044;-73
2023/12/22 04:03:26;;;;;;;18.70;3.60;;;9.30;99.90;;;;;;5044601;28;20445;-72
2023/12/22 04:05:52;;;;;;;20.00;4.22;;;9.30;99.90;;;;;;5048053;28;20728;-72
2023/12/22 04:08:19;;;;;;;23.83;3.88;;;9.40;99.90;;;;;;5046785;28;20496;-72
2023/12/22 04:10:45;;;;;;;26.13;4.15;;;9.40;99.90;;;;;;5040463;28;20029;-72
2023/12/22 04:13:11;;;;;;;24.58;4.78;;;9.40;99.90;;;;;;5050677;28;20040;-73
2023/12/22 04:15:36;;;;;;;21.42;5.10;;;9.40;99.90;;;;;;5047679;28;20024;-72
2023/12/22 04:18:02;;;;;;;19.48;3.95;;;9.40;99.90;;;;;;5039187;28;20045;-72
2023/12/22 04:20:28;;;;;;;15.35;3.85;;;9.40;99.90;;;;;;5052997;28;20495;-73
2023/12/22 04:22:54;;;;;;;24.05;4.15;;;9.40;99.90;;;;;;5045123;28;20371;-73
2023/12/22 04:25:19;;;;;;;15.98;3.08;;;9.40;99.90;;;;;;5045465;28;20020;-73
2023/12/22 04:27:45;;;;;;;16.80;3.35;;;9.40;99.90;;;;;;5047731;28;20035;-71
2023/12/22 04:30:11;;;;;;;18.92;3.13;;;9.50;99.90;;;;;;5043624;28;20026;-71
2023/12/22 04:32:37;;;;;;;19.92;3.50;;;9.50;99.90;;;;;;5036133;28;20060;-73
2023/12/22 04:35:03;;;;;;;15.93;3.53;;;9.50;99.90;;;;;;5040087;28;20034;-73
2023/12/22 04:37:29;;;;;;;20.08;3.65;;;9.60;99.90;;;;;;5014693;28;20033;-72
2023/12/22 04:39:54;;;;;;;16.45;3.70;;;9.60;99.90;;;;;;5034465;28;20043;-72
2023/12/22 04:42:20;;;;;;;21.00;3.45;;;9.60;99.90;;;;;;5035392;28;20021;-72
2023/12/22 04:44:46;;;;;;;19.25;3.92;;;9.60;99.90;;;;;;5031814;28;20559;-72
2023/12/22 04:47:12;;;;;;;23.33;4.68;;;9.70;99.90;;;;;;5033988;28;20024;-72
2023/12/22 04:49:38;;;;;;;14.73;3.17;;;9.70;99.90;;;;;;5036305;28;20057;-74
2023/12/22 04:52:04;;;;;;;22.70;3.65;;;9.70;99.90;;;;;;5033931;28;20474;-73
2023/12/22 04:54:30;;;;;;;25.92;4.03;;;9.70;99.90;;;;;;5036281;28;20108;-72
2023/12/22 04:56:55;;;;;;;19.15;4.43;;;9.70;99.90;;;;;;5038021;28;20033;-72
2023/12/22 04:59:21;;;;;;;21.77;3.75;;;9.70;99.90;;;;;;5032434;28;20071;-73
2023/12/22 05:01:47;;;;;;;20.00;3.78;;;9.70;99.90;;;;;;5032876;28;20382;-73
2023/12/22 05:04:12;;;;;;;19.65;4.15;;;9.70;99.90;;;;;;5034985;28;20124;-72
2023/12/22 05:06:38;;;;;;;22.77;3.72;;;9.70;99.90;;;;;;5033898;28;20017;-73
2023/12/22 05:09:04;;;;;;;21.95;4.38;;;9.70;99.90;;;;;;5029796;28;20502;-73
2023/12/22 05:11:30;;;;;;;21.75;4.03;;;9.60;99.90;;;;;;5034562;28;20033;-73
2023/12/22 05:13:55;;;;;;;21.83;4.45;;;9.60;99.90;;;;;;5035615;28;20068;-72
2023/12/22 05:16:21;;;;;;;23.67;4.80;;;9.70;99.90;;;;;;5033179;28;20021;-73
2023/12/22 05:18:47;;;;;;;27.58;4.72;;;9.70;99.90;;;;;;5037303;28;20056;-73
2023/12/22 05:21:15;;;;;;;21.90;5.63;;;9.70;99.90;;;;;;5034531;28;20390;-73
2023/12/22 05:23:41;;;;;;;24.98;6.22;;;9.80;99.90;;;;;;5033254;28;20056;-72
2023/12/22 05:26:08;;;;;;;20.70;4.32;;;9.80;99.90;;;;;;5037067;28;20057;-73
2023/12/22 05:28:33;;;;;;;23.50;4.20;;;9.70;99.90;;;;;;5035438;28;20482;-71
2023/12/22 05:30:59;;;;;;;19.45;3.95;;;9.60;99.90;;;;;;5035791;28;20112;-73
2023/12/22 05:33:25;;;;;;;27.42;4.55;;;9.60;99.90;;;;;;5033740;28;20044;-73
2023/12/22 05:35:51;;;;;;;20.58;4.63;;;9.50;99.90;;;;;;5030278;28;20028;-72
2023/12/22 05:38:17;;;;;;;21.50;3.50;;;9.50;99.90;;;;;;5034806;28;20504;-73
2023/12/22 05:40:43;;;;;;;19.95;3.55;;;9.50;99.90;;;;;;5034846;28;20040;-73
2023/12/22 05:43:08;;;;;;;29.83;4.43;;;9.50;99.90;;;;;;5033950;28;20017;-73
2023/12/22 05:45:34;;;;;;;16.58;3.80;;;9.50;99.90;;;;;;5031584;28;20033;-73
2023/12/22 05:48:00;;;;;;;26.02;4.30;;;9.50;99.90;;;;;;5032411;28;20366;-73
2023/12/22 05:50:26;;;;;;;28.58;4.47;;;9.50;99.90;;;;;;5035974;28;20060;-72
2023/12/22 05:52:51;;;;;;;25.80;5.13;;;9.40;99.90;;;;;;5034500;28;20374;-72
2023/12/22 05:55:17;;;;;;;26.65;5.15;;;9.50;99.90;;;;;;5034325;28;20025;-72
2023/12/22 05:57:43;;;;;;;35.63;6.85;;;9.60;99.90;;;;;;5029741;28;20521;-72
2023/12/22 06:00:11;;;;;;;36.40;6.72;;;9.40;99.90;;;;;;5037360;28;20034;-72
2023/12/22 06:02:38;;;;;;;38.83;6.65;;;9.60;99.90;;;;;;5035290;28;20025;-72
2023/12/22 06:05:04;;;;;;;35.17;6.32;;;9.50;99.90;;;;;;5035587;28;20108;-72
2023/12/22 06:07:30;;;;;;;32.67;6.22;;;9.60;99.90;;;;;;5034193;28;20021;-72
2023/12/22 06:09:55;;;;;;;37.38;7.03;;;9.60;99.90;;;;;;5035753;28;20047;-73
2023/12/22 06:12:21;;;;;;;40.65;7.15;;;9.60;99.90;;;;;;5032019;28;20026;-72
2023/12/22 06:14:46;;;;;;;29.27;5.45;;;9.60;99.90;;;;;;5033836;28;20036;-72
2023/12/22 06:17:12;;;;;;;34.85;5.70;;;9.60;99.90;;;;;;5031572;28;20378;-72
2023/12/22 06:19:38;;;;;;;49.20;8.05;;;9.60;99.90;;;;;;5031666;28;20480;-72
2023/12/22 06:22:04;;;;;;;47.10;7.13;;;9.60;99.90;;;;;;5037029;28;20531;-72
2023/12/22 06:24:29;;;;;;;42.95;7.22;;;9.70;99.90;;;;;;5039172;28;20028;-72
2023/12/22 06:26:55;;;;;;;35.53;6.53;;;9.60;99.90;;;;;;5036926;28;20037;-73
2023/12/22 06:29:21;;;;;;;43.13;6.30;;;9.60;99.90;;;;;;5035407;28;20033;-72
2023/12/22 06:31:50;;;;;;;41.28;7.18;;;9.60;99.90;;;;;;5036626;28;20030;-72
2023/12/22 06:34:17;;;;;;;34.40;6.95;;;9.60;99.90;;;;;;5032829;28;20039;-73
2023/12/22 06:36:43;;;;;;;36.65;6.70;;;9.70;99.90;;;;;;5033981;28;20029;-72
2023/12/22 06:39:09;;;;;;;32.88;6.85;;;9.70;99.90;;;;;;5036129;28;20386;-72
2023/12/22 06:41:35;;;;;;;43.38;7.43;;;9.70;99.90;;;;;;5037517;28;20060;-72
2023/12/22 06:44:00;;;;;;;33.63;6.72;;;9.60;99.90;;;;;;5035159;28;20025;-73
2023/12/22 06:46:27;;;;;;;47.03;7.30;;;9.70;99.90;;;;;;5038697;28;20043;-72
2023/12/22 06:48:54;;;;;;;37.85;6.32;;;9.70;99.90;;;;;;5035649;28;20489;-72
2023/12/22 06:51:34;;;;;;;37.47;7.60;;;9.70;99.90;;;;;;5040252;28;20037;-72
2023/12/22 06:54:00;;;;;;;43.60;7.38;;;9.70;99.90;;;;;;5038623;28;20477;-73
2023/12/22 06:56:27;;;;;;;42.05;7.85;;;9.70;99.90;;;;;;5034240;28;20071;-73
2023/12/22 06:58:55;;;;;;;37.08;7.00;;;9.80;99.90;;;;;;5035301;28;20468;-73
2023/12/22 07:01:21;;;;;;;38.53;7.65;;;9.80;99.90;;;;;;5038861;28;20110;-73
2023/12/22 07:03:48;;;;;;;49.30;8.18;;;9.70;99.90;;;;;;5035391;28;20386;-72
2023/12/22 07:06:15;;;;;;;41.28;6.65;;;9.70;99.90;;;;;;5038486;28;20025;-73
2023/12/22 07:08:41;;;;;;;38.17;7.07;;;9.80;99.90;;;;;;5038091;28;20107;-73
2023/12/22 07:11:07;;;;;;;42.63;7.13;;;9.80;99.90;;;;;;5036596;28;20117;-72
2023/12/22 07:13:33;;;;;;;43.03;6.72;;;9.80;99.90;;;;;;5036682;28;20542;-72
2023/12/22 07:15:58;;;;;;;37.60;7.72;;;9.90;99.90;;;;;;5034202;28;20105;-72
2023/12/22 07:18:25;;;;;;;38.58;7.60;;;9.90;99.90;;;;;;5033824;28;20482;-73
2023/12/22 07:20:50;;;;;;;40.53;7.15;;;9.80;99.90;;;;;;5030934;28;20488;-72
2023/12/22 07:23:16;;;;;;;42.03;7.40;;;9.90;99.90;;;;;;5037607;28;20025;-72
2023/12/22 07:25:42;;;;;;;37.78;7.53;;;10.00;99.90;;;;;;5035549;28;20073;-73
2023/12/22 07:28:07;;;;;;;45.17;6.85;;;9.90;99.90;;;;;;5034906;28;20045;-72
2023/12/22 07:30:33;;;;;;;34.83;7.03;;;10.00;99.90;;;;;;5035548;28;20026;-72
2023/12/22 07:32:59;;;;;;;39.08;7.03;;;9.90;99.90;;;;;;5036975;28;20028;-72
2023/12/22 07:35:25;;;;;;;41.40;7.75;;;9.90;99.90;;;;;;5033191;28;20379;-72
2023/12/22 07:37:51;;;;;;;34.88;6.28;;;9.90;99.90;;;;;;5035149;28;20044;-73
2023/12/22 07:40:16;;;;;;;36.83;7.32;;;10.00;99.90;;;;;;5030112;28;20038;-73
2023/12/22 07:42:42;;;;;;;36.88;6.43;;;10.00;99.90;;;;;;5033236;28;20021;-72
2023/12/22 07:45:09;;;;;;;37.72;6.63;;;9.90;99.90;;;;;;5036678;28;20543;-73
2023/12/22 07:47:36;;;;;;;35.53;6.53;;;10.00;99.90;;;;;;5031416;28;20049;-72
2023/12/22 07:50:02;;;;;;;37.80;6.07;;;10.00;99.90;;;;;;5033811;28;20095;-73
2023/12/22 07:52:27;;;;;;;34.33;6.32;;;10.00;99.90;;;;;;5034658;28;20025;-73
2023/12/22 07:54:53;;;;;;;35.35;6.60;;;9.90;99.90;;;;;;5034442;28;20486;-72
2023/12/22 07:57:19;;;;;;;33.78;7.00;;;10.00;99.90;;;;;;5034817;28;20371;-73
2023/12/22 07:59:44;;;;;;;37.15;6.25;;;10.00;99.90;;;;;;5036189;28;20517;-73
2023/12/22 08:02:10;;;;;;;33.72;6.80;;;10.00;99.90;;;;;;5032648;28;20397;-73
2023/12/22 08:04:35;;;;;;;37.80;6.53;;;10.10;99.90;;;;;;5032678;28;20057;-72
2023/12/22 08:07:02;;;;;;;30.48;6.93;;;10.10;99.90;;;;;;5034713;28;20025;-72
2023/12/22 08:09:28;;;;;;;38.38;6.00;;;10.20;99.90;;;;;;5032562;28;20135;-72
2023/12/22 08:11:56;;;;;;;35.08;6.10;;;10.10;99.90;;;;;;5035829;28;20053;-71
2023/12/22 08:14:22;;;;;;;32.60;6.05;;;10.10;99.90;;;;;;5035471;28;20017;-72
2023/12/22 08:16:48;;;;;;;32.85;5.85;;;10.10;99.90;;;;;;5036542;28;20036;-72
2023/12/22 08:19:13;;;;;;;25.80;4.68;;;10.10;99.90;;;;;;5039337;28;20037;-72
2023/12/22 08:21:39;;;;;;;27.27;4.68;;;10.10;99.90;;;;;;5037496;28;20056;-73
2023/12/22 08:24:05;;;;;;;23.45;4.90;;;10.00;99.90;;;;;;5033772;28;20040;-73
2023/12/22 08:26:31;;;;;;;23.48;5.05;;;10.10;99.90;;;;;;5039210;28;20021;-72
2023/12/22 08:28:56;;;;;;;21.02;5.05;;;10.10;99.90;;;;;;5035469;28;20021;-72
2023/12/22 08:31:22;;;;;;;25.33;4.93;;;10.10;99.90;;;;;;5038776;28;20026;-72
2023/12/22 08:33:48;;;;;;;24.85;4.78;;;10.10;99.90;;;;;;5035251;28;20458;-72
2023/12/22 08:36:13;;;;;;;19.63;4.32;;;10.10;99.90;;;;;;5040427;28;20486;-72
2023/12/22 08:38:40;;;;;;;21.17;4.43;;;10.10;99.90;;;;;;5036325;28;20044;-73
2023/12/22 08:41:10;;;;;;;19.23;4.47;;;10.20;99.90;;;;;;5035673;28;20374;-73
2023/12/22 08:43:38;;;;;;;20.67;4.10;;;10.20;99.90;;;;;;5032204;28;20028;-73
2023/12/22 08:46:04;;;;;;;22.45;4.60;;;10.20;99.90;;;;;;5032756;28;20056;-73
2023/12/22 08:48:30;;;;;;;15.73;3.78;;;10.20;99.90;;;;;;5033381;28;20447;-73
2023/12/22 08:50:55;;;;;;;20.42;3.70;;;10.20;99.90;;;;;;5032633;28;20023;-73
2023/12/22 08:53:21;;;;;;;20.63;2.85;;;10.20;99.90;;;;;;5038839;28;20029;-73
2023/12/22 08:55:47;;;;;;;15.07;3.10;;;10.20;99.90;;;;;;5035896;28;20017;-73
2023/12/22 08:58:13;;;;;;;15.63;3.35;;;10.20;99.90;;;;;;5035551;28;20029;-74
2023/12/22 09:00:38;;;;;;;16.73;4.18;;;10.20;99.90;;;;;;5035606;28;20044;-74
2023/12/22 09:03:04;;;;;;;10.98;3.22;;;10.10;99.90;;;;;;5034518;28;20455;-74
2023/12/22 09:05:30;;;;;;;12.68;3.08;;;10.20;99.90;;;;;;5031700;28;20470;-74
2023/12/22 09:07:55;;;;;;;16.35;3.22;;;10.20;99.90;;;;;;5028853;28;20029;-74
2023/12/22 09:10:21;;;;;;;16.50;3.42;;;10.30;99.90;;;;;;5035350;28;20383;-74
2023/12/22 09:12:47;;;;;;;13.25;2.75;;;10.20;99.90;;;;;;5029663;28;20031;-74
2023/12/22 09:15:13;;;;;;;12.85;3.33;;;10.20;99.90;;;;;;5031671;28;20104;-74
2023/12/22 09:17:38;;;;;;;11.80;3.05;;;10.20;99.90;;;;;;5037882;28;20047;-74
2023/12/22 09:20:05;;;;;;;17.23;3.85;;;10.20;99.90;;;;;;5035370;28;20394;-74
2023/12/22 09:22:30;;;;;;;17.25;4.03;;;10.20;99.90;;;;;;5036959;28;20017;-74
2023/12/22 09:24:56;;;;;;;15.13;4.43;;;10.20;99.90;;;;;;5032906;28;20026;-73
2023/12/22 09:27:22;;;;;;;13.30;3.90;;;10.30;99.90;;;;;;5031554;28;20371;-74
2023/12/22 09:29:47;;;;;;;9.90;4.10;;;10.30;99.90;;;;;;5032815;28;20045;-74
2023/12/22 09:32:13;;;;;;;20.17;4.40;;;10.30;99.90;;;;;;5036310;28;20374;-74
2023/12/22 09:34:40;;;;;;;15.15;4.00;;;10.30;99.90;;;;;;5034134;28;20381;-74
2023/12/22 09:37:06;;;;;;;11.40;4.57;;;10.30;99.90;;;;;;5033087;28;20033;-74
2023/12/22 09:39:31;;;;;;;11.05;4.25;;;10.30;99.90;;;;;;5033812;28;20037;-74
2023/12/22 09:41:57;;;;;;;13.90;4.30;;;10.20;99.90;;;;;;5034164;28;20041;-74
2023/12/22 09:44:24;;;;;;;15.25;4.22;;;10.30;99.90;;;;;;5033132;28;20033;-74
2023/12/22 09:46:50;;;;;;;18.98;5.05;;;10.40;99.90;;;;;;5034371;28;20394;-74
2023/12/22 09:49:21;;;;;;;11.55;4.10;;;10.40;99.90;;;;;;5035703;28;20116;-74
2023/12/22 09:51:47;;;;;;;10.25;4.25;;;10.40;99.90;;;;;;5035110;28;20024;-73
2023/12/22 09:54:13;;;;;;;10.77;4.35;;;10.40;99.90;;;;;;5037583;28;20032;-74
2023/12/22 09:56:42;;;;;;;13.48;4.90;;;10.40;99.90;;;;;;5036263;28;20116;-74
2023/12/22 09:59:14;;;;;;;9.07;3.80;;;10.50;99.90;;;;;;5040446;28;20036;-72
2023/12/22 10:01:45;;;;;;;8.05;3.75;;;10.60;99.90;;;;;;5037872;28;20100;-74
2023/12/22 10:04:14;;;;;;;11.27;5.00;;;10.60;99.90;;;;;;5042491;28;20087;-74
2023/12/22 10:06:41;;;;;;;6.40;3.65;;;10.60;99.90;;;;;;5035735;28;20454;-74
2023/12/22 10:09:08;;;;;;;10.45;3.92;;;10.60;99.90;;;;;;5040834;28;20021;-73
2023/12/22 10:11:38;;;;;;;8.00;3.40;;;10.70;99.90;;;;;;5034949;28;20061;-73
2023/12/22 10:14:06;;;;;;;10.95;4.15;;;10.70;99.90;;;;;;5034992;28;20017;-74
2023/12/22 10:16:32;;;;;;;5.53;2.55;;;10.70;99.90;;;;;;5038512;28;20035;-73
2023/12/22 10:18:59;;;;;;;8.80;3.05;;;10.70;99.90;;;;;;5036216;28;20386;-72
2023/12/22 10:21:25;;;;;;;7.55;3.17;;;10.80;99.90;;;;;;5035892;28;20018;-73
2023/12/22 10:23:51;;;;;;;13.65;2.80;;;10.80;99.90;;;;;;5040576;28;20031;-73
2023/12/22 10:26:17;;;;;;;8.60;2.60;;;10.80;99.90;;;;;;5039423;28;20465;-73
2023/12/22 10:28:46;;;;;;;9.68;2.38;;;11.00;99.90;;;;;;5031313;28;20478;-72
2023/12/22 10:31:12;;;;;;;8.65;2.28;;;11.00;99.90;;;;;;5033483;28;20029;-72
2023/12/22 10:33:39;;;;;;;8.43;2.30;;;10.90;99.90;;;;;;5035396;28;20104;-72
2023/12/22 10:36:07;;;;;;;5.47;1.77;;;10.90;99.90;;;;;;5038906;28;20012;-73
2023/12/22 10:38:36;;;;;;;10.68;2.13;;;10.90;99.90;;;;;;5040022;28;20664;-72
2023/12/22 10:41:06;;;;;;;11.57;2.33;;;10.90;99.90;;;;;;5037217;28;20076;-72
2023/12/22 10:43:39;;;;;;;11.98;2.72;;;10.90;99.90;;;;;;5034641;28;20024;-72
2023/12/22 10:46:05;;;;;;;9.18;1.80;;;11.00;99.90;;;;;;5032873;28;20039;-72
2023/12/22 10:48:31;;;;;;;13.10;2.60;;;11.00;99.90;;;;;;5035121;28;20049;-73
2023/12/22 10:50:57;;;;;;;7.25;1.98;;;10.90;99.90;;;;;;5038792;28;20099;-72
2023/12/22 10:53:24;;;;;;;6.70;2.00;;;11.00;99.90;;;;;;5035457;28;20028;-72
2023/12/22 10:55:50;;;;;;;11.18;1.85;;;11.00;99.90;;;;;;5035041;28;20028;-72
2023/12/22 10:58:16;;;;;;;8.05;1.80;;;11.00;99.90;;;;;;5036570;28;20653;-72
2023/12/22 11:00:45;;;;;;;5.50;1.70;;;11.10;99.90;;;;;;5039105;28;20112;-74
2023/12/22 11:03:16;;;;;;;6.90;1.80;;;11.10;99.90;;;;;;5033869;28;20041;-72
2023/12/22 11:05:46;;;;;;;11.73;2.00;;;11.10;99.90;;;;;;5033487;28;20466;-70
2023/12/22 11:08:12;;;;;;;9.07;1.92;;;11.10;99.90;;;;;;5037614;28;20081;-72
2023/12/22 11:10:43;;;;;;;5.97;1.90;;;11.10;99.90;;;;;;5034790;28;20030;-73
2023/12/22 11:13:13;;;;;;;8.60;1.90;;;11.10;99.90;;;;;;5035721;28;20033;-73
2023/12/22 11:15:40;;;;;;;12.40;1.92;;;11.20;99.90;;;;;;5038171;28;20348;-73
2023/12/22 11:18:07;;;;;;;10.43;2.05;;;11.20;99.90;;;;;;5036248;28;20483;-72
2023/12/22 11:20:34;;;;;;;5.97;1.60;;;11.10;99.90;;;;;;5033969;28;20078;-73
2023/12/22 11:23:01;;;;;;;17.60;2.03;;;11.20;99.90;;;;;;5037192;28;20497;-73
2023/12/22 11:25:30;;;;;;;7.50;1.77;;;11.20;99.90;;;;;;5035924;28;20078;-72
2023/12/22 11:27:57;;;;;;;8.10;1.85;;;11.20;99.90;;;;;;5038161;28;20393;-73
2023/12/22 11:30:23;;;;;;;6.45;1.55;;;11.30;99.90;;;;;;5038663;28;20025;-72
2023/12/22 11:32:50;;;;;;;4.70;1.95;;;11.30;99.90;;;;;;5039496;28;20025;-73
2023/12/22 11:35:17;;;;;;;5.65;1.42;;;11.30;99.90;;;;;;5037049;28;20063;-71
2023/12/22 11:37:43;;;;;;;5.85;1.65;;;11.40;99.90;;;;;;5034952;28;20076;-73
2023/12/22 11:40:09;;;;;;;7.05;1.50;;;11.50;99.90;;;;;;5036969;28;20017;-72
2023/12/22 11:42:42;;;;;;;10.82;1.50;;;11.30;99.90;;;;;;5036064;28;20116;-72
2023/12/22 11:45:11;;;;;;;6.55;1.58;;;11.30;99.90;;;;;;5036821;28;20014;-71
2023/12/22 11:47:37;;;;;;;7.63;1.52;;;11.40;99.90;;;;;;5035249;28;20474;-73
2023/12/22 11:50:08;;;;;;;7.10;1.73;;;11.40;99.90;;;;;;5032926;28;20075;-74
2023/12/22 11:52:34;;;;;;;10.52;1.70;;;11.40;99.90;;;;;;5034910;28;20033;-72
2023/12/22 11:55:00;;;;;;;3.58;1.42;;;11.30;99.90;;;;;;5035983;28;20024;-74
2023/12/22 11:57:31;;;;;;;8.00;1.50;;;11.20;99.90;;;;;;5035216;28;20033;-77
2023/12/22 12:00:01;;;;;;;8.07;1.95;;;11.20;99.90;;;;;;5039063;28;20119;-74
2023/12/22 12:02:29;;;;;;;7.82;1.80;;;11.30;99.90;;;;;;5033399;28;20104;-72
2023/12/22 12:04:58;;;;;;;5.43;1.77;;;11.30;99.90;;;;;;5037000;28;20036;-75
2023/12/22 12:07:44;;;;;;;7.18;2.03;;;11.30;99.90;;;;;;5033882;28;20040;-74
2023/12/22 12:10:30;;;;;;;5.88;1.80;;;11.30;99.90;;;;;;5033488;28;20030;-74
2023/12/22 12:13:15;;;;;;;8.82;1.98;;;11.30;99.90;;;;;;5034475;28;20040;-74
2023/12/22 12:15:42;;;;;;;7.97;2.05;;;11.30;99.90;;;;;;5033817;28;20099;-72
2023/12/22 12:18:09;;;;;;;6.78;1.98;;;11.30;99.90;;;;;;5034246;28;20025;-74
2023/12/22 12:20:35;;;;;;;5.75;1.70;;;11.30;99.90;;;;;;5033585;28;20025;-73
2023/12/22 12:23:04;;;;;;;8.93;2.03;;;11.20;99.90;;;;;;5035399;28;20485;-73
2023/12/22 12:25:32;;;;;;;7.75;1.77;;;11.20;99.90;;;;;;5031824;28;20045;-72
2023/12/22 12:28:06;;;;;;;9.32;1.90;;;11.30;99.90;;;;;;5035885;28;20024;-73
2023/12/22 12:30:32;;;;;;;6.70;1.90;;;11.30;99.90;;;;;;5035867;28;20390;-73
2023/12/22 12:33:09;;;;;;;8.52;1.75;;;11.30;99.90;;;;;;5035379;28;20057;-73
2023/12/22 12:35:35;;;;;;;7.20;1.38;;;11.30;99.90;;;;;;5035319;28;20017;-74
2023/12/22 12:38:03;;;;;;;8.80;1.60;;;11.30;99.90;;;;;;5034822;28;20041;-73
2023/12/22 12:40:35;;;;;;;5.22;1.52;;;11.30;99.90;;;;;;5034097;28;20148;-73
2023/12/22 12:43:02;;;;;;;7.93;1.60;;;11.20;99.90;;;;;;5036486;28;20033;-73